createdAt,value
2022-10-19T00:01:17.773Z,12.40
2022-10-19T00:06:26.513Z,14.60
2022-10-19T00:08:57.754Z,13.80
2022-10-19T00:11:26.447Z,11.30
2022-10-19T00:13:55.825Z,14.70
2022-10-19T00:16:24.860Z,17.60
2022-10-19T00:18:56.039Z,13.60
2022-10-19T00:21:24.037Z,13.10
2022-10-19T00:23:52.267Z,12.80
2022-10-19T00:26:20.460Z,13.00
2022-10-19T00:28:48.311Z,12.60
2022-10-19T00:31:17.759Z,11.80
2022-10-19T00:33:47.107Z,12.80
2022-10-19T00:36:20.419Z,14.70
2022-10-19T00:38:48.746Z,13.00
2022-10-19T00:41:18.454Z,12.50
2022-10-19T00:43:59.877Z,15.40
2022-10-19T00:46:31.073Z,15.00
2022-10-19T00:51:31.629Z,14.80
2022-10-19T00:54:02.379Z,13.40
2022-10-19T00:56:30.322Z,14.40
2022-10-19T00:58:58.351Z,12.30
2022-10-19T01:01:28.470Z,15.10
2022-10-19T01:03:56.368Z,12.90
2022-10-19T01:06:25.295Z,15.10
2022-10-19T01:08:53.122Z,15.40
2022-10-19T01:11:29.459Z,14.40
2022-10-19T01:14:25.016Z,13.40
2022-10-19T01:16:55.692Z,13.30
2022-10-19T01:19:38.471Z,14.80
2022-10-19T01:22:21.616Z,14.80
2022-10-19T01:25:44.077Z,14.00
2022-10-19T01:28:14.534Z,15.00
2022-10-19T01:30:52.922Z,13.00
2022-10-19T01:33:36.040Z,14.30
2022-10-19T01:36:37.030Z,18.10
2022-10-19T01:39:24.615Z,15.60
2022-10-19T01:42:20.132Z,14.50
2022-10-19T01:45:02.605Z,15.00
2022-10-19T01:47:36.898Z,17.30
2022-10-19T01:50:13.617Z,16.70
2022-10-19T01:52:43.153Z,17.00
2022-10-19T01:55:16.164Z,17.90
2022-10-19T01:57:48.218Z,17.20
2022-10-19T02:00:17.260Z,15.60
2022-10-19T02:02:49.546Z,16.60
2022-10-19T02:05:20.329Z,18.00
2022-10-19T02:07:54.505Z,15.80
2022-10-19T02:10:22.857Z,16.00
2022-10-19T02:12:52.297Z,15.90
2022-10-19T02:15:23.950Z,17.00
2022-10-19T02:17:56.869Z,16.00
2022-10-19T02:20:24.983Z,19.20
2022-10-19T02:22:52.807Z,22.40
2022-10-19T02:25:21.650Z,16.30
2022-10-19T02:27:50.276Z,16.30
2022-10-19T02:30:22.316Z,17.60
2022-10-19T02:32:51.406Z,19.70
2022-10-19T02:35:19.657Z,15.20
2022-10-19T02:37:47.474Z,18.30
2022-10-19T02:40:15.606Z,20.60
2022-10-19T02:42:54.205Z,17.50
2022-10-19T02:45:32.259Z,19.40
2022-10-19T02:48:11.975Z,16.90
2022-10-19T02:50:49.893Z,17.20
2022-10-19T02:53:18.605Z,18.30
2022-10-19T02:55:49.045Z,16.40
2022-10-19T02:58:16.945Z,20.30
2022-10-19T03:00:44.792Z,21.90
2022-10-19T04:00:07.665Z,13.60
2022-10-19T04:02:39.747Z,14.20
2022-10-19T04:05:08.292Z,13.80
2022-10-19T04:07:36.247Z,14.10
2022-10-19T04:10:04.671Z,11.20
2022-10-19T04:12:33.374Z,12.60
2022-10-19T04:15:01.185Z,11.70
2022-10-19T04:17:29.371Z,10.70
2022-10-19T04:19:57.398Z,8.60
2022-10-19T04:22:25.190Z,8.80
2022-10-19T04:24:53.826Z,11.30
2022-10-19T04:27:21.807Z,12.80
2022-10-19T04:29:49.698Z,11.80
2022-10-19T04:32:17.488Z,9.90
2022-10-19T04:34:45.268Z,8.40
2022-10-19T04:37:13.120Z,8.80
2022-10-19T04:39:43.191Z,15.90
2022-10-19T04:42:10.995Z,7.90
2022-10-19T04:44:39.588Z,8.80
2022-10-19T04:47:07.367Z,10.90
2022-10-19T04:49:35.160Z,13.10
2022-10-19T04:52:02.950Z,8.00
2022-10-19T04:54:30.810Z,7.90
2022-10-19T04:56:58.639Z,8.50
2022-10-19T04:59:26.477Z,8.40
2022-10-19T05:01:54.290Z,9.00
2022-10-19T05:04:22.123Z,9.00
2022-10-19T05:06:49.918Z,10.00
2022-10-19T05:09:17.770Z,8.10
2022-10-19T05:11:45.853Z,14.90
2022-10-19T05:14:13.675Z,10.90
2022-10-19T05:16:41.476Z,9.00
2022-10-19T05:19:13.508Z,7.80
2022-10-19T05:21:41.320Z,10.60
2022-10-19T05:24:13.062Z,9.80
2022-10-19T05:26:41.103Z,10.70
2022-10-19T05:29:14.085Z,8.40
2022-10-19T05:31:42.243Z,6.40
2022-10-19T05:34:10.253Z,14.60
2022-10-19T05:36:40.176Z,10.60
2022-10-19T05:39:19.433Z,12.40
2022-10-19T05:41:48.207Z,11.80
2022-10-19T05:44:21.245Z,8.80
2022-10-19T05:46:50.515Z,7.20
2022-10-19T05:49:20.905Z,9.80
2022-10-19T05:51:49.298Z,19.40
2022-10-19T05:54:17.269Z,13.90
2022-10-19T05:56:45.709Z,12.30
2022-10-19T05:59:19.611Z,11.90
2022-10-19T06:01:48.227Z,13.60
2022-10-19T06:06:45.979Z,7.30
2022-10-19T06:09:13.940Z,7.50
2022-10-19T06:11:43.236Z,8.40
2022-10-19T06:14:16.250Z,8.30
2022-10-19T06:16:46.243Z,9.80
2022-10-19T06:19:14.406Z,6.70
2022-10-19T06:21:45.846Z,9.30
2022-10-19T06:24:14.052Z,11.50
2022-10-19T06:26:42.741Z,6.70
2022-10-19T06:29:11.207Z,5.40
2022-10-19T06:31:39.092Z,7.20
2022-10-19T06:34:07.309Z,7.00
2022-10-19T06:36:35.721Z,10.50
2022-10-19T06:39:04.420Z,11.80
2022-10-19T06:41:32.953Z,7.10
2022-10-19T06:44:09.890Z,8.20
2022-10-19T06:46:40.598Z,3.70
2022-10-19T06:49:13.233Z,9.20
2022-10-19T06:51:41.371Z,11.30
2022-10-19T06:54:09.176Z,10.00
2022-10-19T06:56:37.040Z,10.20
2022-10-19T06:59:04.960Z,8.80
2022-10-19T07:01:33.168Z,5.60
2022-10-19T07:04:00.982Z,5.20
2022-10-19T07:06:29.091Z,6.30
2022-10-19T07:08:57.164Z,8.20
2022-10-19T07:11:24.975Z,4.80
2022-10-19T07:13:53.522Z,10.30
2022-10-19T07:16:21.980Z,4.20
2022-10-19T07:18:52.876Z,5.20
2022-10-19T07:21:22.993Z,9.60
2022-10-19T07:23:51.343Z,7.70
2022-10-19T07:26:27.160Z,9.30
2022-10-19T07:28:57.173Z,6.10
2022-10-19T07:31:26.789Z,3.50
2022-10-19T07:33:56.756Z,6.10
2022-10-19T07:36:25.858Z,6.60
2022-10-19T07:38:53.883Z,6.80
2022-10-19T07:41:24.008Z,7.20
2022-10-19T07:43:52.281Z,9.20
2022-10-19T07:46:22.922Z,12.00
2022-10-19T07:48:51.643Z,6.50
2022-10-19T07:51:20.216Z,5.20
2022-10-19T07:53:48.625Z,9.00
2022-10-19T07:56:21.883Z,7.80
2022-10-19T07:58:51.410Z,8.60
2022-10-19T08:01:21.935Z,10.40
2022-10-19T08:06:40.932Z,5.10
2022-10-19T08:09:08.840Z,7.20
2022-10-19T08:11:37.023Z,5.60
2022-10-19T08:14:04.972Z,6.90
2022-10-19T08:16:39.426Z,3.90
2022-10-19T08:19:09.748Z,6.80
2022-10-19T08:21:39.619Z,4.20
2022-10-19T08:24:07.985Z,5.70
2022-10-19T08:26:38.281Z,5.20
2022-10-19T08:29:10.200Z,6.30
2022-10-19T08:31:38.789Z,7.10
2022-10-19T08:34:07.245Z,5.20
2022-10-19T08:36:36.126Z,6.90
2022-10-19T08:39:07.470Z,6.70
2022-10-19T08:41:41.388Z,6.80
2022-10-19T08:44:18.201Z,5.60
2022-10-19T08:47:23.216Z,5.70
2022-10-19T08:49:52.305Z,5.50
2022-10-19T08:52:24.341Z,9.70
2022-10-19T08:54:55.561Z,6.40
2022-10-19T08:57:37.585Z,5.70
2022-10-19T09:00:30.394Z,5.50
2022-10-19T09:03:32.139Z,4.00
2022-10-19T09:06:31.718Z,4.60
2022-10-19T09:08:59.912Z,6.40
2022-10-19T09:11:32.656Z,6.60
2022-10-19T09:14:18.492Z,7.20
2022-10-19T09:16:46.833Z,5.20
2022-10-19T09:19:29.360Z,7.60
2022-10-19T09:22:00.717Z,5.10
2022-10-19T09:24:45.779Z,3.30
2022-10-19T09:27:22.463Z,6.70
2022-10-19T09:29:55.565Z,7.40
2022-10-19T09:32:31.126Z,6.80
2022-10-19T09:35:02.526Z,4.20
2022-10-19T09:37:32.822Z,7.20
2022-10-19T09:40:00.663Z,4.80
2022-10-19T09:42:34.038Z,10.10
2022-10-19T09:45:26.052Z,6.10
2022-10-19T09:47:53.857Z,9.40
2022-10-19T09:50:24.570Z,4.40
2022-10-19T09:53:02.871Z,4.80
2022-10-19T09:55:42.606Z,8.30
2022-10-19T09:58:13.482Z,5.70
2022-10-19T10:00:44.411Z,2.50
2022-10-19T10:03:27.364Z,4.50
2022-10-19T10:06:03.490Z,6.30
2022-10-19T10:08:35.029Z,5.10
2022-10-19T10:11:13.223Z,7.40
2022-10-19T10:13:44.337Z,7.20
2022-10-19T10:16:16.666Z,5.30
2022-10-19T10:19:02.847Z,4.70
2022-10-19T10:21:34.818Z,3.30
2022-10-19T10:24:10.520Z,5.40
2022-10-19T10:26:44.882Z,3.60
2022-10-19T10:29:20.375Z,7.20
2022-10-19T10:31:52.986Z,5.40
2022-10-19T10:34:38.556Z,3.80
2022-10-19T10:37:29.199Z,4.20
2022-10-19T10:40:01.844Z,4.60
2022-10-19T10:42:42.167Z,5.10
2022-10-19T10:45:20.914Z,3.80
2022-10-19T10:47:48.958Z,2.70
2022-10-19T10:50:24.440Z,3.40
2022-10-19T10:53:04.307Z,2.70
2022-10-19T10:55:33.461Z,2.20
2022-10-19T10:58:25.610Z,4.50
2022-10-19T11:00:57.282Z,6.20
2022-10-19T11:03:33.832Z,21.60
2022-10-19T11:06:03.183Z,7.50
2022-10-19T11:08:56.801Z,7.40
2022-10-19T11:11:35.138Z,3.90
2022-10-19T11:14:28.014Z,4.70
2022-10-19T11:17:02.722Z,3.70
2022-10-19T11:19:35.785Z,4.60
2022-10-19T11:22:37.888Z,3.60
2022-10-19T11:25:35.967Z,4.30
2022-10-19T11:28:28.555Z,2.10
2022-10-19T11:31:22.529Z,2.20
2022-10-19T11:33:55.248Z,3.90
2022-10-19T11:36:29.073Z,1.90
2022-10-19T11:39:06.089Z,5.70
2022-10-19T11:41:44.140Z,2.30
2022-10-19T11:44:57.366Z,1.60
2022-10-19T11:47:50.792Z,1.10
2022-10-19T11:50:27.071Z,1.40
2022-10-19T11:53:26.535Z,1.00
2022-10-19T11:56:13.670Z,1.60
2022-10-19T11:58:52.139Z,1.90
2022-10-19T12:01:25.719Z,3.30
2022-10-19T12:03:56.490Z,3.40
2022-10-19T12:06:43.645Z,3.70
2022-10-19T12:09:28.194Z,1.80
2022-10-19T12:12:07.755Z,6.20
2022-10-19T12:14:41.942Z,3.90
2022-10-19T12:17:17.157Z,4.60
2022-10-19T12:19:50.271Z,2.80
2022-10-19T12:22:23.810Z,3.70
2022-10-19T12:24:55.437Z,4.20
2022-10-19T12:27:35.903Z,2.70
2022-10-19T12:30:14.410Z,4.70
2022-10-19T12:33:13.000Z,7.80
2022-10-19T12:36:08.516Z,5.70
2022-10-19T12:38:45.063Z,8.10
2022-10-19T12:41:23.929Z,6.90
2022-10-19T12:44:20.126Z,5.10
2022-10-19T12:46:56.448Z,4.30
2022-10-19T12:49:26.672Z,6.30
2022-10-19T12:51:56.351Z,6.70
2022-10-19T12:54:27.035Z,8.10
2022-10-19T12:56:56.820Z,6.20
2022-10-19T12:59:26.107Z,1.80
2022-10-19T13:01:54.981Z,2.50
2022-10-19T13:04:26.948Z,6.10
2022-10-19T13:06:57.832Z,3.60
2022-10-19T13:12:25.889Z,4.80
2022-10-19T13:14:55.207Z,7.20
2022-10-19T13:17:36.946Z,2.90
2022-10-19T13:20:14.271Z,5.80
2022-10-19T13:23:03.622Z,8.90
2022-10-19T13:25:39.245Z,7.90
2022-10-19T13:28:07.069Z,6.20
2022-10-19T13:30:47.129Z,7.10
2022-10-19T13:33:36.709Z,5.90
2022-10-19T13:36:08.182Z,5.90
2022-10-19T13:38:39.931Z,7.90
2022-10-19T13:41:14.008Z,22.40
2022-10-19T13:43:53.783Z,13.80
2022-10-19T13:46:54.134Z,9.60
2022-10-19T13:49:34.483Z,5.90
2022-10-19T13:52:24.127Z,4.60
2022-10-19T13:55:22.687Z,7.20
2022-10-19T13:58:14.206Z,18.70
2022-10-19T14:01:23.215Z,58.40
2022-10-19T14:04:12.397Z,20.80
2022-10-19T14:07:17.224Z,16.10
2022-10-19T14:10:03.089Z,18.80
2022-10-19T14:12:35.326Z,56.60
2022-10-19T14:15:19.842Z,15.60
2022-10-19T14:17:48.130Z,36.80
2022-10-19T14:20:34.340Z,26.50
2022-10-19T14:23:26.479Z,16.70
2022-10-19T14:26:00.914Z,19.70
2022-10-19T14:28:30.286Z,12.60
2022-10-19T14:31:04.845Z,12.10
2022-10-19T14:33:36.062Z,6.40
2022-10-19T14:38:40.203Z,11.00
2022-10-19T14:41:21.674Z,18.90
2022-10-19T14:43:49.539Z,16.30
2022-10-19T14:46:17.521Z,9.60
2022-10-19T14:48:50.572Z,16.20
2022-10-19T14:51:46.298Z,9.30
2022-10-19T14:54:22.947Z,8.40
2022-10-19T14:56:56.060Z,14.50
2022-10-19T14:59:34.210Z,12.30
2022-10-19T15:02:11.562Z,14.40
2022-10-19T15:04:39.556Z,10.10
2022-10-19T15:07:18.889Z,8.60
2022-10-19T15:09:57.101Z,8.90
2022-10-19T15:12:34.752Z,21.10
2022-10-19T15:15:11.622Z,20.90
2022-10-19T15:18:20.394Z,26.10
2022-10-19T15:21:20.908Z,25.90
2022-10-19T15:26:24.241Z,11.20
2022-10-19T15:28:53.696Z,12.00
2022-10-19T15:31:26.378Z,11.30
2022-10-19T15:33:58.142Z,9.40
2022-10-19T15:36:27.954Z,8.50
2022-10-19T15:39:11.177Z,12.80
2022-10-19T15:41:46.592Z,9.50
2022-10-19T15:44:50.152Z,9.10
2022-10-19T15:47:21.824Z,14.10
2022-10-19T15:49:59.303Z,11.50
2022-10-19T15:52:33.577Z,16.10
2022-10-19T15:55:02.052Z,15.20
2022-10-19T15:57:38.239Z,13.80
2022-10-19T16:00:14.946Z,28.50
2022-10-19T16:02:43.615Z,38.60
2022-10-19T16:05:11.801Z,103.70
2022-10-19T16:07:41.829Z,34.00
2022-10-19T16:10:19.042Z,29.20
2022-10-19T16:12:47.190Z,35.70
2022-10-19T16:15:22.270Z,20.10
2022-10-19T16:17:53.329Z,17.30
2022-10-19T16:22:49.796Z,18.40
2022-10-19T16:25:18.539Z,24.80
2022-10-19T16:27:46.544Z,17.50
2022-10-19T16:30:15.025Z,20.60
2022-10-19T16:32:43.179Z,18.40
2022-10-19T16:35:11.784Z,18.80
2022-10-19T16:37:39.712Z,18.10
2022-10-19T16:40:08.417Z,14.30
2022-10-19T16:42:36.555Z,20.00
2022-10-19T16:45:05.301Z,20.40
2022-10-19T16:47:33.069Z,11.20
2022-10-19T16:50:03.245Z,15.30
2022-10-19T16:52:33.212Z,16.60
2022-10-19T16:55:01.438Z,11.70
2022-10-19T16:57:29.648Z,19.70
2022-10-19T16:59:57.449Z,17.10
2022-10-19T17:02:25.581Z,25.00
2022-10-19T17:04:53.377Z,18.60
2022-10-19T17:07:21.457Z,29.80
2022-10-19T17:09:53.706Z,20.60
2022-10-19T17:12:22.594Z,23.80
2022-10-19T17:14:51.405Z,47.90
2022-10-19T17:17:19.396Z,48.70
2022-10-19T17:19:48.349Z,41.70
2022-10-19T17:22:16.179Z,30.90
2022-10-19T17:24:46.432Z,31.10
2022-10-19T17:27:14.656Z,50.00
2022-10-19T17:29:42.700Z,57.30
2022-10-19T17:32:10.540Z,32.00
2022-10-19T17:34:38.379Z,25.50
2022-10-19T17:37:06.371Z,50.10
2022-10-19T17:39:34.332Z,41.10
2022-10-19T17:42:04.256Z,39.70
2022-10-19T17:44:32.241Z,28.00
2022-10-19T17:47:01.272Z,29.50
2022-10-19T17:49:30.218Z,27.40
2022-10-19T17:51:58.441Z,46.50
2022-10-19T17:54:26.551Z,44.20
2022-10-19T17:56:54.478Z,31.20
2022-10-19T17:59:30.497Z,42.30
2022-10-19T18:02:04.802Z,40.50
2022-10-19T18:04:32.756Z,35.30
2022-10-19T18:07:01.646Z,23.50
2022-10-19T18:09:30.024Z,17.20
2022-10-19T18:11:58.081Z,22.00
2022-10-19T18:14:25.883Z,15.60
2022-10-19T18:16:54.155Z,16.10
2022-10-19T18:19:22.030Z,15.90
2022-10-19T18:21:49.970Z,43.00
2022-10-19T18:24:20.278Z,24.30
2022-10-19T18:26:50.743Z,22.40
2022-10-19T18:29:24.330Z,16.80
2022-10-19T18:31:53.017Z,16.40
2022-10-19T18:34:24.044Z,13.70
2022-10-19T18:36:52.489Z,9.70
2022-10-19T18:39:21.140Z,11.70
2022-10-19T18:41:54.607Z,13.30
2022-10-19T18:44:27.039Z,12.60
2022-10-19T18:46:56.882Z,7.60
2022-10-19T18:49:25.211Z,14.20
2022-10-19T18:51:55.406Z,13.60
2022-10-19T18:54:26.507Z,8.20
2022-10-19T18:56:55.657Z,12.90
2022-10-19T18:59:23.965Z,7.30
2022-10-19T19:01:52.241Z,7.60
2022-10-19T19:04:20.308Z,8.70
2022-10-19T19:06:48.366Z,11.20
2022-10-19T19:09:17.490Z,8.80
2022-10-19T19:11:45.715Z,9.70
2022-10-19T19:14:17.643Z,8.00
2022-10-19T19:16:46.166Z,5.70
2022-10-19T19:19:16.267Z,10.50
2022-10-19T19:21:45.345Z,7.10
2022-10-19T19:24:16.660Z,6.50
2022-10-19T19:26:54.854Z,8.80
2022-10-19T19:29:22.874Z,9.60
2022-10-19T19:31:52.000Z,8.00
2022-10-19T19:34:20.035Z,5.90
2022-10-19T19:36:48.851Z,7.80
2022-10-19T19:39:20.441Z,7.30
2022-10-19T19:41:50.147Z,7.30
2022-10-19T19:44:18.690Z,6.40
2022-10-19T19:46:46.869Z,7.10
2022-10-19T19:49:15.225Z,8.40
2022-10-19T19:51:43.102Z,5.80
2022-10-19T19:54:12.308Z,7.10
2022-10-19T19:56:42.214Z,7.90
2022-10-19T19:59:11.692Z,8.20
2022-10-19T20:01:39.752Z,5.90
2022-10-19T20:04:07.660Z,6.10
2022-10-19T20:06:37.913Z,11.50
2022-10-19T20:09:07.622Z,8.60
2022-10-19T20:11:39.690Z,11.80
2022-10-19T20:14:10.627Z,9.60
2022-10-19T20:16:38.513Z,8.80
2022-10-19T20:19:09.893Z,6.80
2022-10-19T20:21:38.909Z,7.80
2022-10-19T20:24:07.702Z,7.20
2022-10-19T20:26:36.033Z,6.60
2022-10-19T20:29:04.898Z,8.90
2022-10-19T20:31:38.714Z,7.70
2022-10-19T20:34:14.063Z,6.80
2022-10-19T20:36:42.185Z,7.80
2022-10-19T20:39:10.285Z,10.00
2022-10-19T20:41:38.112Z,5.20
2022-10-19T20:44:06.153Z,6.90
2022-10-19T20:46:35.114Z,5.70
2022-10-19T20:49:03.814Z,6.20
2022-10-19T20:51:36.501Z,5.50
2022-10-19T20:54:08.400Z,6.90
2022-10-19T20:56:38.442Z,7.00
2022-10-19T20:59:13.960Z,6.80
2022-10-19T21:01:43.127Z,6.00
2022-10-19T21:04:13.493Z,9.10
2022-10-19T21:06:45.705Z,11.40
2022-10-19T21:09:17.199Z,9.30
2022-10-19T21:11:47.337Z,8.90
2022-10-19T21:14:21.184Z,9.40
2022-10-19T21:16:51.732Z,8.60
2022-10-19T21:19:22.385Z,8.00
2022-10-19T21:21:55.418Z,7.60
2022-10-19T21:24:27.147Z,6.10
2022-10-19T21:26:55.568Z,5.70
2022-10-19T21:29:23.496Z,7.50
2022-10-19T21:31:52.999Z,8.40
2022-10-19T21:34:24.136Z,8.40
2022-10-19T21:39:20.515Z,7.50
2022-10-19T21:41:48.855Z,9.40
2022-10-19T21:44:18.073Z,9.10
2022-10-19T21:46:49.947Z,9.70
2022-10-19T21:49:18.489Z,17.60
2022-10-19T21:51:53.599Z,9.90
2022-10-19T21:54:29.122Z,7.90
2022-10-19T21:56:58.571Z,9.60
2022-10-19T21:59:26.471Z,11.50
2022-10-19T22:01:56.351Z,11.80
2022-10-19T22:04:24.335Z,15.50
2022-10-19T22:06:52.415Z,10.40
2022-10-19T22:09:22.129Z,8.80
2022-10-19T22:11:49.944Z,9.50
2022-10-19T22:14:18.435Z,13.20
2022-10-19T22:16:46.642Z,8.40
2022-10-19T22:19:14.937Z,7.60
2022-10-19T22:21:42.922Z,8.80
2022-10-19T22:24:14.203Z,8.00
2022-10-19T22:26:45.435Z,8.30
2022-10-19T22:29:13.764Z,8.80
2022-10-19T22:31:42.273Z,9.40
2022-10-19T22:34:14.214Z,7.40
2022-10-19T22:36:42.754Z,9.10
2022-10-19T22:39:10.978Z,10.00
2022-10-19T22:41:38.762Z,10.30
2022-10-19T22:44:06.679Z,11.50
2022-10-19T22:46:34.579Z,10.60
2022-10-19T22:49:02.636Z,9.60
2022-10-19T22:51:30.531Z,8.70
2022-10-19T22:53:58.374Z,9.40
2022-10-19T22:56:26.621Z,10.30
2022-10-19T22:58:58.744Z,7.30
2022-10-19T23:01:27.018Z,8.30
2022-10-19T23:03:55.519Z,15.10
2022-10-19T23:06:23.668Z,11.20
2022-10-19T23:08:51.718Z,11.80
2022-10-19T23:11:20.336Z,10.60
2022-10-19T23:13:48.970Z,10.10
2022-10-19T23:16:16.804Z,10.50
2022-10-19T23:18:45.001Z,11.20
2022-10-19T23:21:14.457Z,8.10
2022-10-19T23:23:42.753Z,12.20
2022-10-19T23:26:19.785Z,11.80
2022-10-19T23:28:49.791Z,11.20
2022-10-19T23:31:20.157Z,8.60
2022-10-19T23:33:47.881Z,8.00
2022-10-19T23:36:23.464Z,6.80
2022-10-19T23:38:52.540Z,7.70
2022-10-19T23:41:22.099Z,9.40
2022-10-19T23:43:50.156Z,8.60
2022-10-19T23:46:18.106Z,9.10
2022-10-19T23:48:45.874Z,11.50
2022-10-19T23:51:16.691Z,10.50
2022-10-19T23:53:46.784Z,11.20
2022-10-19T23:56:26.971Z,12.40
2022-10-19T23:58:55.490Z,21.20
